Flight Track Log - Related Links

Times and Time Zones

All times are in EDT time to prevent confusion due to time zone crossing. See the JBU1329 flight status page for this flight to view local times or setup timezone preferences in your user account.

Time Position Orientation Groundspeed Altitude Reporting Facility
EDT Latitude Longitude Course Direction KTS MPH feet Rate Location/Type
Wed 09:43:35 42.3833 -71.0167 240° Southwest 134 154 900  Level KA90
Wed 09:44:47 42.4000 -71.0833 289° West 192 221 3,000 2,548 Climbing KA90
Wed 09:46:00 42.3020 -70.7171 172° South  Level FlightAware Approximate
Wed 09:47:00 42.2388 -70.8084 228° Southwest  Level FlightAware Approximate
Wed 09:47:14 42.3381 -71.2547 244° Southwest 244 281 10,200  Level Boston Center
Wed 09:48:00 42.1907 -70.9162 240° Southwest  Level FlightAware Approximate
Wed 09:48:15 42.2825 -71.3514 232° Southwest 283 326 12,500  Level Boston Center
Wed 09:49:15 42.2314 -71.4475 234° Southwest 320 368 15,000 2,678 Climbing Boston Center
Wed 09:50:16 42.1761 -71.5492 234° Southwest 338 389 17,900 2,593 Climbing Boston Center
Wed 09:51:13 42.1225 -71.6592 237° Southwest 345 397 20,100 2,205 Climbing Boston Center
Wed 09:52:13 42.0753 -71.7717 241° Southwest 350 403 22,200 1,884 Climbing Boston Center
Wed 09:53:14 42.0239 -71.8922 240° Southwest 361 415 23,900 1,672 Climbing Boston Center
Wed 09:54:15 41.9703 -72.0128 239° Southwest 372 428 25,600 1,513 Climbing Boston Center
Wed 09:55:13 41.9228 -72.1247 240° Southwest 384 442 26,900 1,475 Climbing Boston Center
Wed 09:56:13 41.8689 -72.2506 240° Southwest 384 442 28,500 1,785 Climbing Boston Center
Wed 09:57:14 41.8128 -72.3761 239° Southwest 390 449 30,500 1,672 Climbing Boston Center
Wed 09:58:15 41.7606 -72.4986 240° Southwest 390 449 31,900 750 Climbing Boston Center
Wed 09:59:14 41.7042 -72.6264 239° Southwest 390 449 32,000 50 Climbing Boston Center
Wed 10:00:14 41.6475 -72.7542 239° Southwest 401 461 32,000  Level Boston Center
Wed 10:01:15 41.5931 -72.8842 241° Southwest 401 461 32,000  Level Boston Center
Wed 10:02:15 41.5383 -73.0086 240° Southwest 401 461 32,000  Level Boston Center
Wed 10:03:13 41.4769 -73.1467 239° Southwest 395 455 32,000  Level Boston Center
Wed 10:04:13 41.4283 -73.2594 240° Southwest 400 460 32,000  Level Boston Center
Wed 10:06:35 41.2911 -73.5656 239° Southwest 399 459 32,000  Level New York Center
Wed 10:07:36 41.2236 -73.6842 233° Southwest 399 459 32,000  Level New York Center
Wed 10:08:36 41.1561 -73.7997 232° Southwest 404 465 32,000  Level New York Center
Wed 10:09:35 41.0864 -73.9178 232° Southwest 409 471 32,000  Level New York Center
Wed 10:10:35 41.0167 -74.0328 231° Southwest 409 471 32,000 -252 Level New York Center
Wed 10:11:34 40.9467 -74.1500 232° Southwest 409 471 31,500 -1,109 Descending New York Center
Wed 10:12:34 40.8706 -74.2617 228° Southwest 409 471 29,800 -1,636 Descending New York Center
Wed 10:13:35 40.8022 -74.3786 232° Southwest 409 471 28,200 -885 Descending New York Center
Wed 10:14:36 40.7322 -74.4928 231° Southwest 409 471 28,000 -393 Descending New York Center
Wed 10:15:37 40.6661 -74.6067 233° Southwest 409 471 27,400 -864 Descending New York Center
Wed 10:16:34 40.5956 -74.7203 231° Southwest 409 471 26,300 -1,475 Descending New York Center
Wed 10:17:35 40.5600 -74.8494 250° West 385 443 24,500 -1,820 Descending New York Center
Wed 10:18:36 40.5303 -74.9814 254° West 380 437 22,600 -2,085 Descending New York Center
Wed 10:19:33 40.5050 -75.1000 254° West 358 412 20,400 -2,136 Descending New York Center
Wed 10:20:34 40.4514 -75.2031 236° Southwest 346 398 18,400 -1,180 Descending New York Center
Wed 10:21:35 40.3919 -75.2808 225° Southwest 341 392 18,000 -197 Descending New York Center
Wed 10:22:36 40.3122 -75.3492 213° Southwest 346 398 18,000  Level New York Center
Wed 10:23:36 40.2239 -75.4222 212° Southwest 351 404 18,000  Level New York Center
Wed 10:24:34 40.1378 -75.4925 212° Southwest 359 413 18,000  Level New York Center
Wed 10:25:35 40.0581 -75.5575 212° Southwest 372 428 18,000  Level New York Center
Wed 10:26:36 39.9631 -75.6350 212° Southwest 378 435 18,000 -149 Level New York Center
Wed 10:27:36 39.8953 -75.7169 223° Southwest 372 428 17,700 -1,373 Descending New York Center
Wed 10:28:34 39.8339 -75.8317 235° Southwest 367 422 15,300 -2,089 Descending New York Center
Wed 10:30:14 39.7500 -76.0000 237° Southwest 338 389 12,200 -1,238 Descending Potomac TRACON
Wed 10:31:14 39.7000 -76.1000 237° Southwest 295 339 12,000 -500 Descending Potomac TRACON
Wed 10:32:14 39.6500 -76.1667 226° Southwest 286 329 11,200 -1,304 Descending Potomac TRACON
Wed 10:33:09 39.5833 -76.2333 218° Southwest 290 334 9,500 -1,736 Descending Potomac TRACON
Wed 10:34:15 39.5167 -76.3000 218° Southwest 288 331 7,700 -1,600 Descending Potomac TRACON
Wed 10:35:09 39.4667 -76.3667 226° Southwest 285 328 6,300 -1,368 Descending Potomac TRACON
Wed 10:36:09 39.4000 -76.4167 210° Southwest 267 307 5,100 -750 Descending Potomac TRACON
Wed 10:37:09 39.3333 -76.4167 180° South 284 327 4,800 -579 Descending Potomac TRACON
Wed 10:38:03 39.2667 -76.4167 180° South 278 320 4,000 -750 Descending Potomac TRACON
Wed 10:39:09 39.1833 -76.4500 197° South 267 307 3,300 -667 Descending Potomac TRACON
Wed 10:40:09 39.1167 -76.4833 201° Southwest 262 302 2,600 -700 Descending Potomac TRACON

Login

Don't have an account? Register now (free) for customized features, flight alerts, and more!